sensor_id;sensor_type;location;lat;lon;timestamp;pressure;altitude;pressure_sealevel;temperature;humidity
47166;BME280;32930;51.112;13.762;2023-01-29T11:57:12;100227.50;;;2.41;67.42
47166;BME280;32930;51.112;13.762;2023-01-29T11:59:50;100227.91;;;2.32;69.97
47166;BME280;32930;51.112;13.762;2023-01-29T12:02:36;100219.50;;;2.33;71.10
47166;BME280;32930;51.112;13.762;2023-01-29T12:05:15;100203.25;;;2.46;71.12
47166;BME280;32930;51.112;13.762;2023-01-29T12:07:47;100201.31;;;2.58;70.28
47166;BME280;32930;51.112;13.762;2023-01-29T12:10:35;100195.94;;;2.52;70.83
47166;BME280;32930;51.112;13.762;2023-01-29T12:15:45;100207.91;;;2.37;72.05
47166;BME280;32930;51.112;13.762;2023-01-29T12:18:29;100188.50;;;2.55;71.21
47166;BME280;32930;51.112;13.762;2023-01-29T12:21:04;100169.19;;;2.75;69.00
47166;BME280;32930;51.112;13.762;2023-01-29T12:23:42;100156.97;;;2.66;67.32
47166;BME280;32930;51.112;13.762;2023-01-29T12:26:16;100158.63;;;2.66;67.87
47166;BME280;32930;51.112;13.762;2023-01-29T12:28:49;100157.81;;;2.67;67.37
47166;BME280;32930;51.112;13.762;2023-01-29T12:31:41;100149.94;;;2.61;68.44
47166;BME280;32930;51.112;13.762;2023-01-29T12:37:47;100154.19;;;2.79;68.17
47166;BME280;32930;51.112;13.762;2023-01-29T12:40:17;100144.63;;;2.74;68.38
47166;BME280;32930;51.112;13.762;2023-01-29T12:42:51;100145.25;;;2.68;68.08
47166;BME280;32930;51.112;13.762;2023-01-29T12:45:22;100154.47;;;2.68;70.32
47166;BME280;32930;51.112;13.762;2023-01-29T12:47:58;100146.16;;;2.88;68.20
47166;BME280;32930;51.112;13.762;2023-01-29T12:50:29;100134.28;;;2.87;67.71
47166;BME280;32930;51.112;13.762;2023-01-29T12:55:43;100144.84;;;2.96;68.02
47166;BME280;32930;51.112;13.762;2023-01-29T12:58:23;100140.94;;;2.85;68.37
47166;BME280;32930;51.112;13.762;2023-01-29T13:00:58;100129.09;;;2.84;68.18
47166;BME280;32930;51.112;13.762;2023-01-29T13:03:46;100130.94;;;2.88;68.89
47166;BME280;32930;51.112;13.762;2023-01-29T13:06:21;100133.72;;;2.75;70.22
47166;BME280;32930;51.112;13.762;2023-01-29T13:09:24;100136.53;;;2.81;70.25
47166;BME280;32930;51.112;13.762;2023-01-29T13:12:16;100121.53;;;2.86;70.54
47166;BME280;32930;51.112;13.762;2023-01-29T13:17:41;100105.56;;;3.06;69.29
47166;BME280;32930;51.112;13.762;2023-01-29T13:22:39;100107.22;;;3.06;68.69
47166;BME280;32930;51.112;13.762;2023-01-29T13:25:15;100097.44;;;3.13;67.99
47166;BME280;32930;51.112;13.762;2023-01-29T13:27:42;100107.19;;;2.86;70.61
47166;BME280;32930;51.112;13.762;2023-01-29T13:30:30;100107.44;;;2.73;71.64
47166;BME280;32930;51.112;13.762;2023-01-29T13:33:00;100101.75;;;2.96;69.65
47166;BME280;32930;51.112;13.762;2023-01-29T13:35:43;100108.31;;;2.73;71.55
47166;BME280;32930;51.112;13.762;2023-01-29T13:38:29;100102.69;;;2.98;69.27
47166;BME280;32930;51.112;13.762;2023-01-29T13:41:06;100101.28;;;2.86;70.54
47166;BME280;32930;51.112;13.762;2023-01-29T13:43:37;100102.28;;;2.89;69.88
47166;BME280;32930;51.112;13.762;2023-01-29T13:46:10;100105.34;;;2.82;69.92
47166;BME280;32930;51.112;13.762;2023-01-29T13:48:42;100112.00;;;2.99;69.46
47166;BME280;32930;51.112;13.762;2023-01-29T13:51:13;100118.19;;;2.87;71.35
47166;BME280;32930;51.112;13.762;2023-01-29T13:53:51;100112.38;;;3.07;70.34
47166;BME280;32930;51.112;13.762;2023-01-29T13:59:07;100104.69;;;3.06;69.02
47166;BME280;32930;51.112;13.762;2023-01-29T14:06:57;100093.97;;;2.74;72.08
47166;BME280;32930;51.112;13.762;2023-01-29T14:12:29;100101.91;;;2.62;72.83
47166;BME280;32930;51.112;13.762;2023-01-29T14:17:25;100110.31;;;2.81;72.83
47166;BME280;32930;51.112;13.762;2023-01-29T14:19:57;100107.06;;;2.83;72.84
47166;BME280;32930;51.112;13.762;2023-01-29T14:22:27;100091.09;;;2.84;72.93
47166;BME280;32930;51.112;13.762;2023-01-29T14:25:03;100073.63;;;2.90;71.99
47166;BME280;32930;51.112;13.762;2023-01-29T14:27:31;100078.31;;;2.83;72.37
47166;BME280;32930;51.112;13.762;2023-01-29T14:32:39;100078.06;;;2.96;71.12
47166;BME280;32930;51.112;13.762;2023-01-29T14:35:21;100076.94;;;2.89;71.62
47166;BME280;32930;51.112;13.762;2023-01-29T14:37:54;100078.28;;;2.81;73.51
47166;BME280;32930;51.112;13.762;2023-01-29T14:40:26;100083.34;;;2.81;72.59
47166;BME280;32930;51.112;13.762;2023-01-29T14:43:06;100076.75;;;3.04;70.24
47166;BME280;32930;51.112;13.762;2023-01-29T14:45:35;100085.78;;;2.79;73.05
47166;BME280;32930;51.112;13.762;2023-01-29T14:53:21;100093.94;;;2.54;73.82
47166;BME280;32930;51.112;13.762;2023-01-29T14:55:57;100094.44;;;2.65;73.46
47166;BME280;32930;51.112;13.762;2023-01-29T15:00:53;100085.75;;;2.60;72.68
47166;BME280;32930;51.112;13.762;2023-01-29T15:03:39;100087.03;;;2.70;72.83
47166;BME280;32930;51.112;13.762;2023-01-29T15:06:37;100093.19;;;2.75;72.48
47166;BME280;32930;51.112;13.762;2023-01-29T15:09:13;100092.25;;;2.73;73.36
47166;BME280;32930;51.112;13.762;2023-01-29T15:11:52;100088.69;;;2.50;73.22
47166;BME280;32930;51.112;13.762;2023-01-29T15:14:27;100084.59;;;2.71;72.46
47166;BME280;32930;51.112;13.762;2023-01-29T15:19:27;100077.06;;;2.73;72.47
47166;BME280;32930;51.112;13.762;2023-01-29T15:24:35;100072.66;;;2.69;71.79
47166;BME280;32930;51.112;13.762;2023-01-29T17:15:29;99987.44;;;2.51;71.25
47166;BME280;32930;51.112;13.762;2023-01-29T17:17:55;99991.19;;;2.60;70.38
47166;BME280;32930;51.112;13.762;2023-01-29T17:20:20;99995.03;;;2.51;71.14
47166;BME280;32930;51.112;13.762;2023-01-29T17:22:46;99993.06;;;2.44;72.49
47166;BME280;32930;51.112;13.762;2023-01-29T17:25:13;99998.41;;;2.32;72.82
47166;BME280;32930;51.112;13.762;2023-01-29T17:27:43;99991.50;;;2.48;71.51
47166;BME280;32930;51.112;13.762;2023-01-29T17:30:18;99990.50;;;2.44;72.59
47166;BME280;32930;51.112;13.762;2023-01-29T17:32:44;99988.84;;;2.45;69.84
47166;BME280;32930;51.112;13.762;2023-01-29T17:35:29;99989.47;;;2.59;71.22
47166;BME280;32930;51.112;13.762;2023-01-29T17:37:55;99988.44;;;2.55;70.72
47166;BME280;32930;51.112;13.762;2023-01-29T17:43:07;99981.53;;;2.70;68.80
47166;BME280;32930;51.112;13.762;2023-01-29T17:45:37;99982.34;;;2.50;70.25
47166;BME280;32930;51.112;13.762;2023-01-29T17:48:08;99978.97;;;2.31;71.54
47166;BME280;32930;51.112;13.762;2023-01-29T17:50:39;99980.25;;;2.61;70.79
47166;BME280;32930;51.112;13.762;2023-01-29T22:55:54;99548.47;;;1.21;63.50
47166;BME280;32930;51.112;13.762;2023-01-29T22:58:19;99552.41;;;1.35;64.73
47166;BME280;32930;51.112;13.762;2023-01-29T23:14:13;99536.66;;;1.41;64.68
47166;BME280;32930;51.112;13.762;2023-01-29T23:16:39;99525.81;;;1.43;64.36
47166;BME280;32930;51.112;13.762;2023-01-29T23:21:40;99531.47;;;1.37;64.32
47166;BME280;32930;51.112;13.762;2023-01-29T23:24:06;99523.84;;;1.36;63.63
47166;BME280;32930;51.112;13.762;2023-01-29T23:26:32;99513.59;;;1.54;63.81
47166;BME280;32930;51.112;13.762;2023-01-29T23:29:16;99506.72;;;1.50;63.63
47166;BME280;32930;51.112;13.762;2023-01-29T23:31:44;99505.00;;;1.49;63.79
47166;BME280;32930;51.112;13.762;2023-01-29T23:34:10;99502.75;;;1.56;64.73
47166;BME280;32930;51.112;13.762;2023-01-29T23:36:35;99486.16;;;1.21;63.67
47166;BME280;32930;51.112;13.762;2023-01-29T23:39:01;99488.19;;;1.51;64.24
47166;BME280;32930;51.112;13.762;2023-01-29T23:44:50;99469.97;;;1.58;64.07
47166;BME280;32930;51.112;13.762;2023-01-29T23:47:16;99459.34;;;1.67;63.94
47166;BME280;32930;51.112;13.762;2023-01-29T23:49:41;99451.88;;;1.70;64.35
